createdAt,value
2023-06-18T00:04:33.904Z,7.50
2023-06-18T00:09:36.709Z,6.43
2023-06-18T00:14:41.374Z,8.55
2023-06-18T00:19:44.174Z,6.57
2023-06-18T00:24:46.956Z,6.03
2023-06-18T00:29:51.104Z,6.85
2023-06-18T00:34:55.857Z,6.75
2023-06-18T00:39:58.622Z,6.55
2023-06-18T00:45:04.077Z,7.60
2023-06-18T00:50:07.799Z,12.15
2023-06-18T00:55:10.974Z,6.50
2023-06-18T01:00:15.712Z,6.28
2023-06-18T01:05:18.825Z,10.18
2023-06-18T01:10:22.986Z,7.85
2023-06-18T01:15:30.732Z,6.97
2023-06-18T01:20:33.816Z,6.90
2023-06-18T01:25:37.912Z,6.72
2023-06-18T01:30:42.197Z,7.50
2023-06-18T01:35:45.055Z,8.38
2023-06-18T01:40:50.157Z,9.95
2023-06-18T01:45:58.367Z,6.72
2023-06-18T01:51:01.731Z,6.80
2023-06-18T01:56:04.890Z,6.43
2023-06-18T02:01:10.850Z,6.43
2023-06-18T02:06:13.823Z,6.70
2023-06-18T02:11:18.390Z,7.75
2023-06-18T02:16:22.668Z,7.38
2023-06-18T02:21:27.812Z,7.05
2023-06-18T02:26:31.749Z,7.93
2023-06-18T02:31:36.065Z,6.70
2023-06-18T02:36:39.937Z,7.63
2023-06-18T02:41:46.542Z,8.45
2023-06-18T02:46:50.901Z,8.43
2023-06-18T02:51:54.695Z,7.28
2023-06-18T02:56:57.633Z,7.22
2023-06-18T03:02:02.102Z,7.07
2023-06-18T03:07:05.438Z,7.20
2023-06-18T03:12:08.976Z,7.57
2023-06-18T03:17:13.197Z,7.88
2023-06-18T03:22:16.134Z,8.43
2023-06-18T03:27:19.092Z,13.30
2023-06-18T03:32:23.333Z,8.05
2023-06-18T03:37:26.198Z,9.02
2023-06-18T03:42:29.635Z,8.77
2023-06-18T03:47:34.052Z,9.57
2023-06-18T03:52:37.053Z,11.45
2023-06-18T03:57:40.386Z,8.90
2023-06-18T04:02:46.887Z,7.53
2023-06-18T04:07:56.328Z,8.80
2023-06-18T04:12:59.499Z,10.52
2023-06-18T04:18:04.031Z,9.88
2023-06-18T04:23:07.437Z,9.60
2023-06-18T04:28:10.366Z,8.38
2023-06-18T04:33:14.649Z,9.13
2023-06-18T04:38:18.853Z,8.50
2023-06-18T04:43:21.870Z,8.55
2023-06-18T04:48:26.062Z,9.40
2023-06-18T04:53:30.419Z,9.57
2023-06-18T04:58:37.811Z,9.50
2023-06-18T05:03:43.883Z,9.77
2023-06-18T05:08:47.954Z,10.95
2023-06-18T05:13:52.138Z,9.85
2023-06-18T05:18:56.469Z,12.35
2023-06-18T05:23:59.379Z,8.25
2023-06-18T05:29:02.621Z,8.40
2023-06-18T05:34:07.349Z,10.02
2023-06-18T05:39:11.300Z,9.00
2023-06-18T05:44:14.655Z,8.77
2023-06-18T05:49:18.940Z,8.90
2023-06-18T05:54:23.060Z,12.35
2023-06-18T05:59:25.902Z,9.10
2023-06-18T06:04:37.237Z,9.63
2023-06-18T06:09:41.749Z,8.75
2023-06-18T06:14:44.709Z,8.77
2023-06-18T06:19:48.971Z,8.23
2023-06-18T06:24:51.872Z,10.05
2023-06-18T06:29:54.741Z,8.82
2023-06-18T06:34:59.002Z,9.55
2023-06-18T06:40:01.907Z,7.78
2023-06-18T06:45:08.234Z,8.25
2023-06-18T06:50:26.142Z,8.30
2023-06-18T06:55:38.289Z,8.63
2023-06-18T07:00:41.422Z,7.90
2023-06-18T07:05:46.907Z,11.32
2023-06-18T07:10:49.669Z,7.95
2023-06-18T07:15:52.453Z,7.03
2023-06-18T07:20:56.719Z,7.97
2023-06-18T07:25:59.502Z,8.63
2023-06-18T07:31:02.645Z,7.88
2023-06-18T07:36:07.198Z,8.65
2023-06-18T07:41:09.988Z,7.88
2023-06-18T07:46:12.914Z,7.80
2023-06-18T07:51:17.101Z,7.30
2023-06-18T07:56:20.021Z,8.95
2023-06-18T08:01:22.905Z,9.70
2023-06-18T08:06:27.082Z,6.80
2023-06-18T08:11:29.885Z,9.95
2023-06-18T08:16:32.749Z,9.82
2023-06-18T08:21:36.946Z,6.80
2023-06-18T08:26:39.815Z,7.40
2023-06-18T08:31:43.796Z,6.55
2023-06-18T08:36:48.641Z,6.78
2023-06-18T08:41:52.039Z,10.00
2023-06-18T08:47:01.145Z,8.25
2023-06-18T08:52:10.975Z,7.80
2023-06-18T08:57:17.902Z,11.85
2023-06-18T09:02:22.585Z,7.80
2023-06-18T09:07:27.134Z,8.15
2023-06-18T09:12:30.048Z,7.32
2023-06-18T09:17:33.715Z,10.07
2023-06-18T09:22:47.259Z,6.07
2023-06-18T09:27:50.458Z,6.50
2023-06-18T09:32:54.909Z,7.60
2023-06-18T09:38:09.845Z,9.07
2023-06-18T09:43:12.808Z,8.73
2023-06-18T09:48:16.040Z,6.40
2023-06-18T09:53:21.326Z,9.02
2023-06-18T09:58:41.101Z,8.20
2023-06-18T10:03:44.609Z,8.73
2023-06-18T10:08:50.372Z,8.23
2023-06-18T10:13:57.396Z,5.57
2023-06-18T10:19:04.847Z,5.82
2023-06-18T10:24:14.182Z,7.13
2023-06-18T10:29:17.413Z,6.50
2023-06-18T10:34:20.278Z,9.40
2023-06-18T10:39:25.825Z,5.85
2023-06-18T10:44:35.682Z,6.47
2023-06-18T10:49:39.728Z,5.55
2023-06-18T10:54:45.990Z,8.13
2023-06-18T10:59:50.853Z,5.03
2023-06-18T11:04:54.318Z,6.13
2023-06-18T11:09:59.517Z,5.45
2023-06-18T11:15:20.141Z,4.57
2023-06-18T11:20:25.389Z,5.00
2023-06-18T11:25:30.785Z,4.32
2023-06-18T11:30:34.124Z,5.75
2023-06-18T11:35:37.020Z,5.63
2023-06-18T11:40:50.484Z,6.57
2023-06-18T11:45:55.101Z,4.32
2023-06-18T11:50:58.227Z,4.72
2023-06-18T11:56:02.380Z,4.00
2023-06-18T12:01:05.184Z,5.20
2023-06-18T12:06:15.725Z,7.40
2023-06-18T12:11:30.356Z,5.05
2023-06-18T12:16:36.544Z,5.55
2023-06-18T12:21:39.747Z,4.38
2023-06-18T12:26:44.049Z,4.78
2023-06-18T12:32:02.669Z,4.47
2023-06-18T12:37:06.012Z,6.57
2023-06-18T12:42:13.928Z,4.00
2023-06-18T12:47:19.172Z,3.75
2023-06-18T12:52:23.065Z,3.95
2023-06-18T12:57:29.790Z,3.30
2023-06-18T13:02:32.750Z,3.85
2023-06-18T13:07:35.642Z,3.55
2023-06-18T13:12:39.860Z,3.90
2023-06-18T13:17:44.095Z,3.90
2023-06-18T13:22:47.256Z,4.13
2023-06-18T13:27:51.735Z,3.72
2023-06-18T13:32:56.499Z,4.82
2023-06-18T13:37:59.500Z,5.40
2023-06-18T13:43:04.697Z,5.18
2023-06-18T13:48:07.922Z,5.53
2023-06-18T13:53:11.531Z,6.53
2023-06-18T13:58:16.971Z,3.83
2023-06-18T14:03:19.946Z,3.75
2023-06-18T14:08:22.867Z,3.65
2023-06-18T14:13:26.986Z,3.58
2023-06-18T14:18:31.096Z,4.05
2023-06-18T14:23:34.635Z,3.47
2023-06-18T14:28:39.813Z,3.88
2023-06-18T14:33:44.387Z,3.35
2023-06-18T14:38:49.201Z,3.25
2023-06-18T14:43:53.328Z,3.00
2023-06-18T14:48:56.176Z,2.97
2023-06-18T14:54:04.650Z,3.78
2023-06-18T14:59:09.229Z,2.90
2023-06-18T15:04:22.375Z,3.20
2023-06-18T15:09:25.473Z,4.00
2023-06-18T15:14:29.653Z,2.45
2023-06-18T15:19:33.072Z,2.70
2023-06-18T15:24:36.357Z,2.80
2023-06-18T15:29:40.686Z,2.90
2023-06-18T15:34:43.464Z,3.85
2023-06-18T15:39:48.002Z,2.38
2023-06-18T15:44:52.402Z,2.85
2023-06-18T15:49:55.451Z,2.55
2023-06-18T15:54:58.307Z,2.38
2023-06-18T16:00:02.913Z,2.78
2023-06-18T16:05:11.658Z,2.97
2023-06-18T16:10:14.512Z,2.80
2023-06-18T16:15:18.881Z,2.67
2023-06-18T16:20:21.825Z,2.88
2023-06-18T16:25:24.766Z,2.75
2023-06-18T16:30:29.427Z,3.83
2023-06-18T16:35:32.410Z,2.75
2023-06-18T16:40:35.882Z,2.80
2023-06-18T16:45:41.640Z,2.70
2023-06-18T16:50:44.527Z,2.90
2023-06-18T16:55:47.319Z,3.53
2023-06-18T17:00:51.709Z,3.20
2023-06-18T17:05:54.969Z,3.15
2023-06-18T17:10:57.880Z,3.05
2023-06-18T17:16:02.283Z,2.83
2023-06-18T17:21:07.659Z,3.83
2023-06-18T17:26:11.607Z,3.72
2023-06-18T17:31:15.831Z,3.40
2023-06-18T17:36:19.509Z,3.40
2023-06-18T17:41:22.399Z,3.85
2023-06-18T17:46:26.721Z,5.10
2023-06-18T17:51:29.942Z,3.35
2023-06-18T17:56:33.926Z,3.00
2023-06-18T18:01:38.504Z,4.88
2023-06-18T18:06:41.431Z,2.90
2023-06-18T18:11:44.727Z,3.13
2023-06-18T18:16:49.272Z,3.72
2023-06-18T18:21:52.257Z,3.22
2023-06-18T18:26:55.086Z,3.38
2023-06-18T18:32:00.690Z,3.40
2023-06-18T18:37:04.793Z,3.53
2023-06-18T18:42:15.047Z,3.35
2023-06-18T18:47:26.051Z,3.17
2023-06-18T18:52:29.408Z,3.33
2023-06-18T18:57:32.352Z,3.30
2023-06-18T19:02:36.704Z,3.70
2023-06-18T19:07:39.621Z,3.40
2023-06-18T19:12:43.765Z,3.80
2023-06-18T19:17:48.139Z,3.42
2023-06-18T19:22:51.001Z,4.00
2023-06-18T19:27:53.891Z,6.18
2023-06-18T19:32:59.222Z,3.78
2023-06-18T19:38:02.126Z,4.25
2023-06-18T19:43:05.413Z,4.10
2023-06-18T19:48:09.738Z,4.20
2023-06-18T19:53:12.559Z,5.07
2023-06-18T19:58:15.337Z,8.25
2023-06-18T20:03:23.975Z,6.47
2023-06-18T20:08:29.600Z,6.25
2023-06-18T20:13:32.415Z,5.82
2023-06-18T20:18:36.555Z,8.02
2023-06-18T20:23:39.344Z,6.50
2023-06-18T20:28:42.161Z,7.00
2023-06-18T20:33:46.326Z,5.53
2023-06-18T20:38:49.099Z,5.40
2023-06-18T20:43:51.889Z,5.70
2023-06-18T20:48:55.998Z,6.13
2023-06-18T20:54:00.080Z,5.43
2023-06-18T20:59:02.986Z,7.22
2023-06-18T21:04:07.278Z,4.88
2023-06-18T21:09:10.054Z,5.22
2023-06-18T21:14:12.982Z,5.30
2023-06-18T21:19:17.255Z,4.80
2023-06-18T21:24:20.382Z,6.07
2023-06-18T21:29:23.302Z,6.13
2023-06-18T21:34:27.732Z,5.60
2023-06-18T21:39:30.559Z,5.35
2023-06-18T21:44:33.492Z,5.55
2023-06-18T21:49:37.628Z,5.45
2023-06-18T21:54:40.434Z,5.43
2023-06-18T21:59:43.221Z,4.97
2023-06-18T22:04:47.438Z,4.85
2023-06-18T22:09:50.181Z,6.35
2023-06-18T22:14:53.501Z,5.32
2023-06-18T22:19:57.607Z,4.97
2023-06-18T22:25:00.344Z,5.28
2023-06-18T22:30:03.138Z,4.65
2023-06-18T22:35:08.974Z,6.45
2023-06-18T22:40:12.728Z,4.68
2023-06-18T22:45:15.512Z,5.25
2023-06-18T22:50:19.687Z,4.53
2023-06-18T22:55:22.452Z,5.35
2023-06-18T23:00:25.293Z,5.32
2023-06-18T23:05:29.643Z,5.35
2023-06-18T23:10:32.362Z,5.72
2023-06-18T23:15:35.164Z,5.75
2023-06-18T23:20:39.510Z,5.47
2023-06-18T23:25:42.297Z,5.35
2023-06-18T23:30:47.511Z,5.45
2023-06-18T23:35:52.551Z,6.03
2023-06-18T23:40:55.346Z,5.13
2023-06-18T23:45:58.186Z,5.80
2023-06-18T23:51:02.405Z,6.05
2023-06-18T23:56:05.651Z,6.00
